Time;durP1;ratioP1;P1;durP2;ratioP2;P2;SDS_P1;SDS_P2;PMS_P1;PMS_P2;Temp;Humidity;BMP_temperature;BMP_pressure;BME280_temperature;BME280_humidity;BME280_pressure;Samples;Min_cycle;Max_cycle;Signal;HPM_P1;HPM_P2
2023/01/13 00:00:23;;;;;;;81.68;28.85;;;;;;;4.16;nan;101113.31;4983938;28;20037;-65
2023/01/13 00:02:49;;;;;;;78.97;27.98;;;;;;;4.21;nan;101118.06;4997603;28;20046;-66
2023/01/13 00:05:14;;;;;;;88.10;28.58;;;;;;;4.14;nan;101109.25;5007319;28;20045;-66
2023/01/13 00:07:40;;;;;;;92.63;30.67;;;;;;;4.15;nan;101113.50;4984020;28;20050;-66
2023/01/13 00:10:07;;;;;;;91.07;29.90;;;;;;;4.23;nan;101126.53;5004141;28;20660;-65
2023/01/13 00:12:33;;;;;;;77.78;27.08;;;;;;;4.23;nan;101121.31;5005535;28;20105;-66
2023/01/13 00:14:58;;;;;;;66.93;26.33;;;;;;;4.23;nan;101127.34;5000946;28;20121;-66
2023/01/13 00:17:23;;;;;;;71.45;26.30;;;;;;;4.24;nan;101130.78;5001263;28;20562;-66
2023/01/13 00:19:49;;;;;;;65.85;26.30;;;;;;;4.23;nan;101122.13;4999214;28;20524;-65
2023/01/13 00:22:15;;;;;;;67.05;25.65;;;;;;;4.20;nan;101122.47;4995074;28;20030;-66
2023/01/13 00:24:40;;;;;;;74.15;26.42;;;;;;;4.18;nan;101115.78;5004158;28;20036;-67
2023/01/13 00:27:05;;;;;;;68.13;26.52;;;;;;;4.23;nan;101122.13;4998147;28;20480;-67
2023/01/13 00:29:31;;;;;;;66.75;26.25;;;;;;;4.15;nan;101113.50;4998999;28;20472;-68
2023/01/13 00:31:57;;;;;;;67.53;25.92;;;;;;;4.12;nan;101113.81;4984930;28;20030;-66
2023/01/13 00:34:23;;;;;;;66.70;25.90;;;;;;;4.09;nan;101103.72;4985528;28;20022;-66
2023/01/13 00:36:48;;;;;;;66.30;25.88;;;;;;;4.08;nan;101108.13;4999962;28;20022;-67
2023/01/13 00:39:14;;;;;;;64.53;25.48;;;;;;;4.15;nan;101124.75;4998913;28;20017;-65
2023/01/13 00:44:24;;;;;;;65.43;26.42;;;;;;;4.23;nan;101134.34;5000490;28;20447;-67
2023/01/13 00:46:49;;;;;;;66.85;26.52;;;;;;;4.19;nan;101138.25;4994393;28;20101;-66
2023/01/13 00:49:14;;;;;;;72.65;25.45;;;;;;;4.23;nan;101145.59;4999465;28;20022;-67
2023/01/13 00:51:39;;;;;;;71.22;27.00;;;;;;;4.13;nan;101134.53;4996732;28;20105;-67
2023/01/13 00:54:05;;;;;;;64.18;26.33;;;;;;;4.22;nan;101140.56;4990068;28;20037;-64
2023/01/13 00:56:30;;;;;;;70.90;24.88;;;;;;;4.23;nan;101156.00;4998709;28;20573;-67
2023/01/13 00:58:57;;;;;;;73.82;26.08;;;;;;;4.18;nan;101147.06;4999605;28;20713;-67
2023/01/13 01:01:24;;;;;;;71.00;28.50;;;;;;;4.22;nan;101153.59;4983489;28;20496;-66
2023/01/13 01:03:51;;;;;;;77.82;27.00;;;;;;;4.22;nan;101148.38;4999563;28;20064;-67
2023/01/13 01:06:20;;;;;;;74.15;26.38;;;;;;;4.18;nan;101140.06;4993862;28;20089;-66
2023/01/13 01:08:46;;;;;;;78.17;25.27;;;;;;;4.21;nan;101144.97;4984842;28;20052;-66
2023/01/13 01:11:18;;;;;;;72.60;25.83;;;;;;;4.20;nan;101145.91;5002087;28;20535;-66
2023/01/13 01:13:44;;;;;;;63.83;25.80;;;;;;;4.19;nan;101149.50;5002721;28;20030;-66
2023/01/13 01:16:12;;;;;;;72.60;26.23;;;;;;;4.15;nan;101147.41;4999238;28;20026;-66
2023/01/13 01:18:40;;;;;;;64.15;25.40;;;;;;;4.19;nan;101151.28;4982240;28;20030;-67
2023/01/13 01:21:07;;;;;;;65.40;26.77;;;;;;;4.13;nan;101141.53;5001365;28;20037;-67
2023/01/13 01:23:34;;;;;;;82.75;25.50;;;;;;;4.19;nan;101148.69;5000043;28;20388;-67
2023/01/13 01:26:04;;;;;;;74.47;24.58;;;;;;;4.17;nan;101146.25;4999918;28;20018;-66
2023/01/13 01:28:30;;;;;;;60.28;25.80;;;;;;;4.17;nan;101159.28;4999467;28;20025;-67
2023/01/13 01:30:57;;;;;;;65.97;25.08;;;;;;;4.14;nan;101149.19;5003035;28;20392;-66
2023/01/13 01:33:22;;;;;;;64.78;25.65;;;;;;;4.16;nan;101149.81;5001148;28;20477;-66
2023/01/13 01:35:48;;;;;;;63.35;26.02;;;;;;;4.13;nan;101147.56;4998250;28;20085;-66
2023/01/13 01:38:13;;;;;;;56.60;25.52;;;;;;;4.10;nan;101140.06;5004828;28;20032;-66
2023/01/13 01:40:38;;;;;;;59.75;24.95;;;;;;;4.18;nan;101149.66;5001194;28;20065;-67
2023/01/13 01:46:03;;;;;;;51.33;23.58;;;;;;;4.15;nan;101145.59;5000509;28;20041;-67
2023/01/13 01:48:37;;;;;;;56.63;24.38;;;;;;;3.73;nan;101073.63;4985790;28;20026;-67
2023/01/13 01:51:03;;;;;;;63.85;26.77;;;;;;;3.99;nan;101112.53;5003248;28;20045;-67
2023/01/13 01:53:31;;;;;;;54.65;24.58;;;;;;;4.12;nan;101137.28;5003570;28;20402;-67
2023/01/13 01:55:58;;;;;;;52.13;24.63;;;;;;;4.14;nan;101132.72;5001225;28;20125;-66
2023/01/13 01:58:34;;;;;;;50.88;24.55;;;;;;;4.17;nan;101129.81;4999664;28;20499;-66
2023/01/13 02:00:59;;;;;;;55.95;24.50;;;;;;;4.18;nan;101128.81;4999314;28;20026;-66
2023/01/13 02:03:24;;;;;;;52.88;25.45;;;;;;;4.11;nan;101109.59;5005525;28;20063;-66
2023/01/13 02:05:51;;;;;;;51.63;23.70;;;;;;;4.07;nan;101101.31;4999932;28;20030;-66
2023/01/13 02:08:18;;;;;;;53.53;24.15;;;;;;;4.26;nan;101123.56;5001425;28;20092;-66
2023/01/13 02:10:47;;;;;;;50.78;22.80;;;;;;;4.15;nan;101113.50;5002996;28;20714;-66
2023/01/13 02:13:13;;;;;;;49.33;23.75;;;;;;;4.28;nan;101129.44;5006495;28;20030;-66
2023/01/13 02:15:50;;;;;;;53.25;23.75;;;;;;;4.29;nan;101131.09;5009971;28;20387;-65
2023/01/13 02:18:46;;;;;;;54.70;24.17;;;;;;;4.29;nan;101128.47;5009121;28;20036;-67
2023/01/13 02:21:27;;;;;;;48.42;22.33;;;;;;;4.29;nan;101133.69;5004627;28;20034;-66
2023/01/13 02:27:02;;;;;;;49.25;22.63;;;;;;;4.28;nan;101137.25;4986911;28;20507;-66
2023/01/13 02:33:16;;;;;;;52.13;23.23;;;;;;;4.30;nan;101131.91;5004043;28;20129;-67
2023/01/13 02:36:19;;;;;;;54.25;23.48;;;;;;;4.29;nan;101128.47;5000090;28;20105;-68
2023/01/13 02:38:53;;;;;;;55.45;24.48;;;;;;;4.30;nan;101129.28;4908478;29;20035;-67
2023/01/13 02:44:27;;;;;;;55.80;24.52;;;;;;;3.94;nan;101067.09;4907127;29;20434;-67
2023/01/13 02:47:07;;;;;;;50.42;23.65;;;;;;;4.30;nan;101116.25;4909398;29;20131;-67
2023/01/13 02:49:32;;;;;;;54.38;24.70;;;;;;;4.35;nan;101130.41;4896963;29;20130;-68
2023/01/13 02:52:06;;;;;;;52.47;23.65;;;;;;;4.36;nan;101129.44;4907752;29;20551;-67
2023/01/13 02:54:34;;;;;;;53.30;24.23;;;;;;;4.27;nan;101120.00;4909184;29;20029;-68
2023/01/13 02:57:01;;;;;;;55.97;25.33;;;;;;;4.37;nan;101128.47;4909076;29;20039;-65
2023/01/13 02:59:28;;;;;;;58.53;24.17;;;;;;;4.34;nan;101120.16;4909566;29;20622;-66
2023/01/13 03:01:56;;;;;;;53.05;24.13;;;;;;;4.04;nan;101080.78;4908941;29;20040;-66
2023/01/13 03:04:52;;;;;;;56.10;23.63;;;;;;;4.38;nan;101137.94;4905775;29;20742;-66
2023/01/13 03:07:38;;;;;;;58.47;25.38;;;;;;;4.38;nan;101139.69;4908577;29;20083;-65
2023/01/13 03:10:16;;;;;;;56.70;23.83;;;;;;;4.33;nan;101132.38;4908950;29;20050;-67
2023/01/13 03:12:59;;;;;;;56.08;23.38;;;;;;;4.36;nan;101136.47;4912810;29;20071;-66
2023/01/13 03:15:46;;;;;;;61.97;25.20;;;;;;;4.36;nan;101137.28;4971896;28;20517;-65
2023/01/13 03:18:20;;;;;;;62.45;25.58;;;;;;;4.38;nan;101137.09;4985136;28;20099;-65
2023/01/13 03:21:11;;;;;;;58.30;23.15;;;;;;;4.32;nan;101122.13;5001258;28;20041;-65
2023/01/13 03:23:49;;;;;;;73.35;26.23;;;;;;;4.39;nan;101129.09;4965789;28;20137;-67
2023/01/13 03:26:34;;;;;;;66.25;25.50;;;;;;;4.39;nan;101130.91;5001659;28;20033;-67
2023/01/13 03:29:19;;;;;;;66.63;27.55;;;;;;;4.39;nan;101133.53;4998842;28;20096;-66
2023/01/13 03:31:56;;;;;;;70.30;25.85;;;;;;;4.39;nan;101136.94;5002458;28;20013;-65
2023/01/13 03:34:29;;;;;;;66.32;27.08;;;;;;;4.28;nan;101115.59;5003831;28;20159;-65
2023/01/13 03:36:56;;;;;;;87.20;30.02;;;;;;;4.41;nan;101134.97;4996422;28;20049;-67
2023/01/13 03:39:31;;;;;;;87.45;29.13;;;;;;;4.37;nan;101128.47;5003242;28;20030;-65
2023/01/13 03:42:03;;;;;;;75.50;27.85;;;;;;;4.34;nan;101126.19;4996609;28;20022;-65
2023/01/13 03:44:34;;;;;;;77.05;28.42;;;;;;;4.43;nan;101132.19;5000507;28;20556;-65
2023/01/13 03:47:14;;;;;;;79.15;28.23;;;;;;;4.44;nan;101133.81;4999773;28;20038;-65
2023/01/13 03:50:15;;;;;;;68.25;26.92;;;;;;;4.44;nan;101131.22;4999067;28;20473;-65
2023/01/13 03:52:56;;;;;;;82.78;27.95;;;;;;;4.38;nan;101121.44;4985634;28;20065;-66
2023/01/13 03:55:27;;;;;;;87.60;27.67;;;;;;;4.40;nan;101120.28;5001742;28;20033;-65
2023/01/13 03:58:00;;;;;;;87.47;26.02;;;;;;;4.39;nan;101123.09;4998935;28;20043;-65
2023/01/13 04:00:32;;;;;;;81.82;28.10;;;;;;;4.42;nan;101131.38;5001218;28;20033;-67
2023/01/13 04:03:06;;;;;;;72.60;26.85;;;;;;;4.40;nan;101122.91;5001812;28;20665;-67
2023/01/13 04:05:38;;;;;;;81.88;27.85;;;;;;;4.40;nan;101122.91;5004894;28;20380;-66
2023/01/13 04:08:10;;;;;;;71.25;27.05;;;;;;;4.44;nan;101123.41;4999517;28;20065;-65
2023/01/13 04:10:41;;;;;;;83.00;27.17;;;;;;;4.45;nan;101125.84;5005556;28;20065;-66
2023/01/13 04:13:13;;;;;;;92.07;26.25;;;;;;;4.44;nan;101119.00;5003090;28;20416;-66
2023/01/13 04:15:41;;;;;;;91.20;25.98;;;;;;;4.45;nan;101117.19;4981177;28;20465;-66
2023/01/13 04:18:27;;;;;;;84.97;26.90;;;;;;;4.38;nan;101109.25;5009044;28;20034;-66
2023/01/13 04:20:55;;;;;;;68.93;26.92;;;;;;;4.38;nan;101106.63;4998515;28;20547;-65
2023/01/13 04:23:21;;;;;;;72.82;26.50;;;;;;;4.42;nan;101105.28;5005044;28;20028;-66
2023/01/13 04:25:48;;;;;;;70.05;26.30;;;;;;;4.41;nan;101111.50;4990475;28;20030;-66
2023/01/13 04:28:15;;;;;;;65.22;25.95;;;;;;;4.25;nan;101075.84;5003257;28;20026;-66
2023/01/13 04:30:41;;;;;;;71.22;27.58;;;;;;;4.31;nan;101084.81;4998072;28;20481;-66
2023/01/13 04:33:07;;;;;;;64.78;26.98;;;;;;;4.29;nan;101083.34;5011658;28;20057;-67
2023/01/13 04:35:34;;;;;;;77.30;27.08;;;;;;;4.29;nan;101078.13;4999287;28;20060;-65
2023/01/13 04:38:09;;;;;;;78.10;27.60;;;;;;;4.41;nan;101095.88;4999982;28;20029;-67
2023/01/13 04:40:35;;;;;;;67.68;26.20;;;;;;;4.41;nan;101089.84;4998099;28;20025;-68
2023/01/13 04:43:01;;;;;;;63.28;26.58;;;;;;;4.36;nan;101107.78;4983226;28;20392;-66
2023/01/13 04:45:26;;;;;;;60.58;25.05;;;;;;;4.23;nan;101063.97;4999594;28;20456;-65
2023/01/13 04:47:51;;;;;;;69.75;26.20;;;;;;;4.28;nan;101079.91;4998377;28;20121;-66
2023/01/13 04:50:18;;;;;;;70.78;26.65;;;;;;;4.36;nan;101094.75;5000001;28;20509;-68
2023/01/13 04:52:48;;;;;;;72.00;27.17;;;;;;;4.33;nan;101088.03;5002124;28;20022;-67
2023/01/13 04:55:13;;;;;;;;;;;;;;;4.32;nan;101086.44;4999969;28;20031;-67
2023/01/13 04:57:39;;;;;;;73.88;25.85;;;;;;;4.23;nan;101071.78;4988724;28;19921;-67
2023/01/13 05:00:05;;;;;;;64.82;26.80;;;;;;;4.29;nan;101086.78;5000082;28;20113;-67
2023/01/13 05:02:31;;;;;;;69.03;27.17;;;;;;;4.29;nan;101083.34;4999760;28;20068;-67
2023/01/13 05:04:56;;;;;;;69.65;27.13;;;;;;;4.21;nan;101084.16;5001219;28;20419;-66
2023/01/13 05:07:22;;;;;;;68.78;28.90;;;;;;;4.07;nan;101053.56;5001387;28;20054;-66
2023/01/13 05:09:47;;;;;;;71.82;30.48;;;;;;;4.24;nan;101083.84;5001079;28;20088;-67
2023/01/13 05:17:41;;;;;;;76.63;30.75;;;;;;;4.12;nan;101066.91;5006492;28;20029;-67
2023/01/13 05:20:08;;;;;;;85.88;32.92;;;;;;;4.21;nan;101081.56;5004230;28;20030;-65
2023/01/13 05:25:20;;;;;;;107.65;35.22;;;;;;;4.26;nan;101089.69;5008431;28;20455;-65
2023/01/13 05:27:46;;;;;;;95.15;35.40;;;;;;;4.25;nan;101094.09;5008154;28;20085;-65
2023/01/13 05:30:12;;;;;;;108.85;36.67;;;;;;;4.15;nan;101083.03;5004726;28;20078;-66
2023/01/13 05:32:37;;;;;;;120.15;40.35;;;;;;;4.18;nan;101087.91;4987248;28;20041;-66
2023/01/13 05:35:03;;;;;;;111.55;38.35;;;;;;;4.13;nan;101074.56;5007343;28;20027;-67
2023/01/13 05:37:28;;;;;;;120.38;40.72;;;;;;;4.23;nan;101098.66;5005273;28;20077;-67
2023/01/13 05:45:23;;;;;;;108.90;40.83;;;;;;;4.15;nan;101096.06;5006306;28;20510;-67
2023/01/13 05:47:48;;;;;;;117.82;40.30;;;;;;;4.18;nan;101105.34;5003188;28;20033;-68
2023/01/13 05:50:15;;;;;;;131.85;42.38;;;;;;;4.11;nan;101091.34;5002047;28;20046;-67
2023/01/13 05:52:40;;;;;;;126.70;43.10;;;;;;;4.13;nan;101099.81;5004186;28;20029;-66
2023/01/13 05:55:06;;;;;;;121.85;43.58;;;;;;;4.06;nan;101094.44;4995694;28;20383;-66
2023/01/13 05:57:31;;;;;;;130.23;43.63;;;;;;;4.09;nan;101095.91;5004548;28;20026;-67
2023/01/13 05:59:56;;;;;;;117.25;43.40;;;;;;;4.10;nan;101094.94;4991133;28;20026;-67
2023/01/13 06:02:23;;;;;;;118.22;42.28;;;;;;;4.09;nan;101101.94;5005132;28;20021;-67
2023/01/13 06:04:48;;;;;;;122.78;45.17;;;;;;;4.10;nan;101108.00;5002903;28;20018;-66
2023/01/13 06:07:14;;;;;;;136.60;44.90;;;;;;;4.08;nan;101100.31;5006519;28;20060;-66
2023/01/13 06:09:39;;;;;;;140.18;47.67;;;;;;;3.96;nan;101093.81;5005011;28;20026;-66
2023/01/13 06:12:05;;;;;;;133.88;46.78;;;;;;;4.04;nan;101110.25;5006082;28;20472;-65
2023/01/13 06:14:48;;;;;;;137.88;47.95;;;;;;;4.03;nan;101113.84;4995080;28;20028;-66
2023/01/13 06:17:15;;;;;;;129.80;46.47;;;;;;;3.94;nan;101100.97;5000405;28;20042;-66
2023/01/13 06:19:40;;;;;;;147.10;51.58;;;;;;;4.03;nan;101111.22;5005397;28;20472;-66
2023/01/13 06:22:15;;;;;;;129.95;47.65;;;;;;;4.02;nan;101111.38;5002637;28;20041;-67
2023/01/13 06:24:41;;;;;;;133.35;47.60;;;;;;;4.03;nan;101120.84;5008048;28;20094;-67
2023/01/13 06:27:08;;;;;;;109.93;43.28;;;;;;;4.02;nan;101122.66;5004224;28;20074;-66
2023/01/13 06:29:34;;;;;;;114.60;43.63;;;;;;;3.45;nan;101035.84;5003571;28;20083;-65
2023/01/13 06:32:06;;;;;;;115.03;43.65;;;;;;;3.48;nan;101046.78;5002205;28;20026;-66
2023/01/13 06:34:34;;;;;;;122.93;45.55;;;;;;;3.96;nan;101131.09;4999637;28;20514;-66
2023/01/13 06:37:01;;;;;;;124.97;44.95;;;;;;;3.55;nan;101070.38;4999099;28;20026;-66
2023/01/13 06:39:29;;;;;;;116.75;44.38;;;;;;;3.80;nan;101124.09;5003234;28;20057;-67
2023/01/13 06:44:40;;;;;;;120.78;39.70;;;;;;;3.91;nan;101141.22;5007189;28;20029;-65
2023/01/13 06:47:06;;;;;;;120.32;40.90;;;;;;;3.76;nan;101117.59;5004713;28;20464;-67
2023/01/13 06:49:32;;;;;;;108.63;37.58;;;;;;;3.77;nan;101131.44;4987969;28;20024;-66
2023/01/13 06:51:57;;;;;;;111.22;38.03;;;;;;;3.70;nan;101120.03;5003489;28;20036;-67
2023/01/13 06:54:23;;;;;;;93.88;33.30;;;;;;;3.82;nan;101143.00;4984299;28;20034;-65
2023/01/13 06:56:48;;;;;;;91.75;31.83;;;;;;;3.76;nan;101135.84;5007330;28;20034;-66
2023/01/13 06:59:13;;;;;;;88.72;30.77;;;;;;;3.75;nan;101144.59;5003407;28;20037;-67
2023/01/13 07:01:39;;;;;;;96.15;32.03;;;;;;;3.74;nan;101139.59;5001736;28;20117;-67
2023/01/13 07:04:04;;;;;;;84.68;30.00;;;;;;;3.75;nan;101149.00;5002818;28;20014;-67
2023/01/13 07:06:29;;;;;;;94.18;32.92;;;;;;;3.72;nan;101150.16;5000762;28;20042;-66
2023/01/13 07:08:55;;;;;;;89.63;30.58;;;;;;;3.66;nan;101135.16;5004855;28;20037;-66
2023/01/13 07:11:20;;;;;;;88.38;30.52;;;;;;;3.61;nan;101129.63;5006969;28;20018;-65
2023/01/13 07:16:29;;;;;;;86.13;28.90;;;;;;;3.49;nan;101116.09;5004116;28;20053;-65
2023/01/13 07:18:55;;;;;;;99.47;31.02;;;;;;;3.60;nan;101134.03;4993399;28;20018;-68
2023/01/13 07:21:20;;;;;;;91.70;30.67;;;;;;;3.52;nan;101121.00;4999204;28;20092;-65
2023/01/13 07:23:46;;;;;;;92.78;31.17;;;;;;;3.56;nan;101121.47;4999240;28;20105;-65
2023/01/13 07:26:13;;;;;;;97.50;32.95;;;;;;;3.46;nan;101110.41;5002373;28;20388;-66
2023/01/13 07:28:39;;;;;;;92.65;32.95;;;;;;;3.55;nan;101123.28;4999254;28;20068;-66
2023/01/13 07:31:11;;;;;;;104.45;34.08;;;;;;;3.56;nan;101134.50;5002300;28;20034;-65
2023/01/13 07:33:36;;;;;;;100.50;33.55;;;;;;;3.54;nan;101126.84;4998673;28;20030;-67
2023/01/13 07:36:03;;;;;;;93.95;33.42;;;;;;;3.16;nan;101076.16;5001606;28;20133;-68
2023/01/13 07:38:29;;;;;;;93.80;33.90;;;;;;;3.58;nan;101140.38;5002862;28;20025;-67
2023/01/13 07:40:55;;;;;;;95.10;32.42;;;;;;;3.55;nan;101130.28;4988950;28;20033;-67
2023/01/13 07:43:33;;;;;;;114.65;36.70;;;;;;;3.53;nan;101129.63;5003467;28;20022;-67
2023/01/13 07:45:59;;;;;;;108.65;34.83;;;;;;;3.54;nan;101133.84;4986506;28;20427;-67
2023/01/13 07:48:29;;;;;;;116.70;37.53;;;;;;;3.52;nan;101133.19;5003285;28;20041;-66
2023/01/13 07:50:54;;;;;;;115.53;36.42;;;;;;;3.53;nan;101134.81;5001818;28;20056;-65
2023/01/13 07:53:26;;;;;;;119.32;37.40;;;;;;;3.57;nan;101141.34;5001052;28;20018;-66
2023/01/13 07:55:55;;;;;;;117.90;38.05;;;;;;;3.58;nan;101135.16;5000533;28;20427;-66
2023/01/13 07:58:21;;;;;;;114.80;35.40;;;;;;;3.55;nan;101140.69;4999061;28;20105;-65
2023/01/13 08:00:46;;;;;;;108.68;33.63;;;;;;;3.57;nan;101136.94;5004592;28;20155;-66
2023/01/13 08:03:11;;;;;;;126.10;36.25;;;;;;;3.59;nan;101140.22;4983198;28;20411;-66
2023/01/13 08:05:37;;;;;;;125.38;36.05;;;;;;;3.28;nan;101087.09;5004402;28;20105;-66
2023/01/13 08:08:02;;;;;;;119.18;35.97;;;;;;;3.59;nan;101142.81;4997106;28;20046;-68
2023/01/13 08:10:28;;;;;;;110.07;34.17;;;;;;;3.58;nan;101148.97;4998643;28;20472;-65
2023/01/13 08:15:37;;;;;;;118.65;34.13;;;;;;;3.68;nan;101158.44;5002282;28;20028;-66
2023/01/13 08:18:02;;;;;;;117.22;34.90;;;;;;;3.60;nan;101148.84;5004156;28;20026;-67
2023/01/13 08:20:28;;;;;;;113.57;35.65;;;;;;;3.71;nan;101163.31;4997588;28;20068;-65
2023/01/13 08:22:57;;;;;;;126.28;36.65;;;;;;;3.68;nan;101156.66;5004343;28;20121;-66
2023/01/13 08:25:23;;;;;;;114.05;34.38;;;;;;;3.68;nan;101151.44;5003415;28;20029;-65
2023/01/13 08:27:49;;;;;;;118.47;36.08;;;;;;;3.78;nan;101164.31;5002248;28;20026;-68
2023/01/13 08:30:15;;;;;;;120.93;35.63;;;;;;;3.74;nan;101163.84;4995968;28;20694;-66
2023/01/13 08:32:43;;;;;;;123.53;36.50;;;;;;;3.83;nan;101169.84;4989005;28;20026;-67
2023/01/13 08:35:09;;;;;;;121.70;35.72;;;;;;;3.84;nan;101169.69;4996424;28;20065;-67
2023/01/13 08:37:35;;;;;;;119.07;36.80;;;;;;;3.77;nan;101155.69;5002524;28;20377;-66
2023/01/13 08:40:00;;;;;;;114.93;35.92;;;;;;;3.84;nan;101161.88;5000033;28;20037;-66
2023/01/13 08:42:26;;;;;;;113.03;34.78;;;;;;;3.88;nan;101172.81;5000502;28;20026;-66
2023/01/13 08:44:53;;;;;;;118.03;36.67;;;;;;;3.92;nan;101179.31;5001708;28;20041;-67
2023/01/13 08:47:18;;;;;;;116.78;37.33;;;;;;;3.84;nan;101161.06;4987634;28;20083;-65
2023/01/13 08:49:44;;;;;;;102.70;35.75;;;;;;;3.58;nan;101115.13;5009481;28;20029;-66
2023/01/13 08:52:09;;;;;;;115.38;36.55;;;;;;;3.96;nan;101170.19;5010793;28;20480;-66
2023/01/13 08:54:37;;;;;;;109.57;36.85;;;;;;;3.97;nan;101173.59;5005376;28;20125;-67
2023/01/13 08:57:02;;;;;;;103.60;36.22;;;;;;;3.88;nan;101154.56;5007979;28;20033;-66
2023/01/13 08:59:28;;;;;;;113.38;39.42;;;;;;;3.91;nan;101161.25;5003466;28;20081;-66
2023/01/13 09:01:53;;;;;;;101.30;39.88;;;;;;;4.03;nan;101172.97;4995939;28;20050;-66
2023/01/13 09:04:21;;;;;;;108.05;40.97;;;;;;;4.05;nan;101174.44;5006914;28;20537;-67
2023/01/13 09:06:48;;;;;;;80.18;33.13;;;;;;;4.06;nan;101180.47;4983170;28;20461;-66
2023/01/13 09:09:14;;;;;;;78.93;33.40;;;;;;;3.65;nan;101109.28;4965734;28;20393;-66
2023/01/13 09:14:29;;;;;;;80.90;35.38;;;;;;;4.11;nan;101162.53;4975005;28;20038;-65
2023/01/13 09:16:54;;;;;;;77.05;32.90;;;;;;;4.08;nan;101162.88;4969825;28;20106;-66
2023/01/13 09:19:19;;;;;;;77.88;34.00;;;;;;;4.09;nan;101161.06;4966926;28;20031;-65
2023/01/13 09:21:45;;;;;;;73.32;32.38;;;;;;;4.16;nan;101156.84;4970677;28;20384;-67
2023/01/13 09:24:10;;;;;;;82.97;34.08;;;;;;;4.14;nan;101159.63;4963097;28;20082;-66
2023/01/13 09:26:36;;;;;;;72.15;32.33;;;;;;;4.11;nan;101153.91;4967872;28;20507;-66
2023/01/13 09:29:02;;;;;;;67.90;31.42;;;;;;;4.20;nan;101161.56;4968391;28;20113;-66
2023/01/13 09:31:28;;;;;;;76.68;34.08;;;;;;;3.97;nan;101119.69;4968957;28;20118;-66
2023/01/13 09:36:38;;;;;;;70.88;30.60;;;;;;;4.26;nan;101166.13;4966805;28;20066;-65
2023/01/13 09:39:04;;;;;;;69.78;29.70;;;;;;;4.22;nan;101156.19;4966366;28;20441;-66
2023/01/13 09:44:24;;;;;;;72.78;30.30;;;;;;;4.30;nan;101153.56;4969897;28;20081;-67
2023/01/13 09:46:55;;;;;;;69.00;30.73;;;;;;;4.19;nan;101125.22;4965311;28;20035;-67
2023/01/13 09:49:37;;;;;;;68.70;31.65;;;;;;;4.21;nan;101125.88;4968988;28;20034;-66
2023/01/13 09:52:02;;;;;;;70.28;32.00;;;;;;;4.36;nan;101136.47;4982037;28;20085;-67
2023/01/13 09:54:40;;;;;;;72.07;32.85;;;;;;;4.28;nan;101116.41;4968630;28;20031;-66
2023/01/13 09:57:14;;;;;;;80.85;36.13;;;;;;;4.40;nan;101132.53;4968910;28;20022;-66
2023/01/13 09:59:40;;;;;;;91.85;39.22;;;;;;;4.38;nan;101129.25;4959080;28;20027;-65
2023/01/13 10:02:18;;;;;;;101.72;42.80;;;;;;;4.43;nan;101138.25;4970223;28;20117;-66
2023/01/13 10:05:00;;;;;;;96.53;41.05;;;;;;;4.42;nan;101131.38;4965746;28;20027;-65
2023/01/13 10:07:30;;;;;;;95.80;39.78;;;;;;;4.41;nan;101116.72;4988584;28;20050;-65
2023/01/13 10:09:58;;;;;;;92.10;38.28;;;;;;;4.45;nan;101119.78;5003174;28;20038;-66
2023/01/13 10:15:24;;;;;;;84.40;36.95;;;;;;;4.45;nan;101136.28;5004427;28;20035;-66
2023/01/13 10:18:06;;;;;;;66.93;31.10;;;;;;;4.40;nan;101117.69;5006348;28;20026;-66
2023/01/13 10:20:49;;;;;;;74.10;32.25;;;;;;;4.48;nan;101135.13;5003400;28;20025;-67
2023/01/13 10:23:45;;;;;;;67.03;31.50;;;;;;;4.52;nan;101139.00;5002498;28;20452;-66
2023/01/13 10:26:33;;;;;;;68.72;30.80;;;;;;;4.51;nan;101126.97;5008997;28;20034;-65
2023/01/13 10:28:58;;;;;;;71.07;30.17;;;;;;;4.49;nan;101121.09;5000220;28;20408;-65
2023/01/13 10:31:25;;;;;;;62.50;28.98;;;;;;;4.55;nan;101127.44;4989785;28;20018;-65
2023/01/13 10:33:58;;;;;;;65.82;29.95;;;;;;;4.57;nan;101125.47;5006289;28;20038;-67
2023/01/13 10:36:23;;;;;;;67.75;29.83;;;;;;;4.55;nan;101122.22;5003993;28;20030;-65
2023/01/13 10:38:49;;;;;;;60.50;27.65;;;;;;;4.58;nan;101121.91;5001502;28;20038;-66
2023/01/13 10:41:15;;;;;;;64.57;27.52;;;;;;;4.57;nan;101115.03;5003358;28;20040;-66
2023/01/13 10:44:03;;;;;;;63.63;27.77;;;;;;;4.42;nan;101094.88;5000475;28;20389;-67
2023/01/13 10:46:31;;;;;;;70.22;30.10;;;;;;;4.55;nan;101111.78;4999940;28;20014;-66
2023/01/13 10:48:58;;;;;;;70.85;30.02;;;;;;;4.55;nan;101098.75;5003224;28;20354;-66
2023/01/13 10:51:28;;;;;;;64.47;29.45;;;;;;;4.55;nan;101102.19;4998546;28;20023;-66
2023/01/13 10:54:16;;;;;;;59.00;27.90;;;;;;;4.61;nan;101103.31;5005905;28;20029;-66
2023/01/13 10:56:43;;;;;;;65.68;29.23;;;;;;;4.58;nan;101101.84;4996873;28;20046;-66
2023/01/13 10:59:09;;;;;;;62.17;29.05;;;;;;;4.59;nan;101097.44;5001888;28;20025;-65
2023/01/13 11:01:34;;;;;;;55.67;26.93;;;;;;;4.38;nan;101064.06;4985660;28;20022;-65
2023/01/13 11:03:59;;;;;;;60.63;25.75;;;;;;;4.61;nan;101103.31;5004405;28;20274;-67
2023/01/13 11:06:29;;;;;;;57.38;26.63;;;;;;;4.62;nan;101107.53;5000909;28;20144;-66
2023/01/13 11:08:57;;;;;;;50.10;23.80;;;;;;;4.55;nan;101096.13;5004385;28;20527;-65
2023/01/13 11:11:42;;;;;;;53.85;24.45;;;;;;;4.58;nan;101106.25;5000489;28;20022;-66
2023/01/13 11:14:32;;;;;;;51.15;24.65;;;;;;;4.59;nan;101097.44;5006578;28;20064;-65
2023/01/13 11:17:04;;;;;;;55.50;25.25;;;;;;;4.45;nan;101075.47;5003589;28;20076;-66
2023/01/13 11:19:31;;;;;;;51.80;25.90;;;;;;;4.53;nan;101093.72;4985136;28;20029;-67
2023/01/13 11:22:16;;;;;;;57.65;25.48;;;;;;;4.40;nan;101067.34;4993648;28;20028;-66
2023/01/13 11:25:01;;;;;;;53.30;24.50;;;;;;;4.56;nan;101089.94;5008631;28;20384;-67
2023/01/13 11:27:45;;;;;;;52.30;25.70;;;;;;;4.54;nan;101084.91;5003567;28;20087;-67
2023/01/13 11:30:37;;;;;;;53.53;25.80;;;;;;;4.56;nan;101084.75;5002022;28;20023;-67
2023/01/13 11:33:14;;;;;;;46.58;23.92;;;;;;;4.56;nan;101092.56;4931802;29;20036;-68
2023/01/13 11:36:03;;;;;;;49.53;25.42;;;;;;;4.54;nan;101089.31;4931341;29;20051;-67
2023/01/13 11:38:40;;;;;;;49.40;24.30;;;;;;;4.54;nan;101087.50;4921158;29;20036;-67
2023/01/13 11:41:31;;;;;;;49.00;23.98;;;;;;;4.54;nan;101084.09;4936701;29;20997;-67
2023/01/13 11:44:02;;;;;;;53.88;25.23;;;;;;;4.54;nan;101078.88;4924128;29;20067;-68
2023/01/13 11:46:28;;;;;;;46.50;22.70;;;;;;;4.12;nan;101017.38;4930483;29;20035;-67
2023/01/13 11:48:55;;;;;;;44.55;22.40;;;;;;;4.48;nan;101085.59;4930674;29;20035;-67
2023/01/13 11:51:32;;;;;;;47.75;23.83;;;;;;;4.51;nan;101079.22;4930826;29;20517;-67
2023/01/13 11:54:12;;;;;;;48.25;23.70;;;;;;;4.52;nan;101067.78;4933270;29;20126;-66
2023/01/13 11:56:38;;;;;;;45.08;22.77;;;;;;;4.53;nan;101061.59;4930890;29;20553;-66
2023/01/13 11:59:21;;;;;;;50.20;24.80;;;;;;;4.55;nan;101068.28;4930715;29;20028;-67
2023/01/13 12:02:24;;;;;;;49.60;23.48;;;;;;;4.51;nan;101056.56;4931963;29;20046;-66
2023/01/13 12:05:13;;;;;;;47.13;24.27;;;;;;;4.52;nan;101052.94;4932275;29;20497;-66
2023/01/13 12:08:09;;;;;;;57.90;25.77;;;;;;;4.53;nan;101051.97;4930601;29;20475;-66
2023/01/13 12:10:38;;;;;;;58.13;26.20;;;;;;;4.55;nan;101049.19;4985560;28;20034;-68
2023/01/13 12:13:25;;;;;;;59.85;27.70;;;;;;;4.51;nan;101040.09;5005812;28;20133;-67
2023/01/13 12:16:03;;;;;;;66.10;28.92;;;;;;;4.47;nan;101032.59;5000995;28;20022;-68
2023/01/13 12:18:37;;;;;;;62.30;28.48;;;;;;;4.55;nan;101038.75;4980960;28;20026;-66
2023/01/13 12:21:11;;;;;;;65.95;28.73;;;;;;;4.53;nan;101033.72;5001762;28;20498;-67
2023/01/13 12:23:46;;;;;;;69.18;31.20;;;;;;;4.56;nan;101038.59;4980353;28;20026;-67
2023/01/13 12:26:15;;;;;;;67.00;29.55;;;;;;;4.56;nan;101036.00;5003940;28;20419;-66
2023/01/13 12:28:47;;;;;;;71.10;31.27;;;;;;;4.58;nan;101030.63;5006709;28;20058;-66
2023/01/13 12:31:17;;;;;;;69.43;30.92;;;;;;;4.59;nan;101033.03;5003139;28;20429;-66
2023/01/13 12:33:59;;;;;;;64.05;29.88;;;;;;;4.57;nan;101029.78;5002759;28;20022;-66